Time;durP1;ratioP1;P1;durP2;ratioP2;P2;SDS_P1;SDS_P2;PMS_P1;PMS_P2;Temp;Humidity;BMP_temperature;BMP_pressure;BME280_temperature;BME280_humidity;BME280_pressure;Samples;Min_cycle;Max_cycle;Signal;HPM_P1;HPM_P2
2022/08/14 00:00:43;;;;;;;7.93;4.55;;;24.20;73.00;;;;;;5052302;28;20025;-64
2022/08/14 00:03:25;;;;;;;5.55;4.28;;;24.20;73.20;;;;;;5051026;28;20037;-64
2022/08/14 00:05:52;;;;;;;5.25;4.05;;;24.10;73.20;;;;;;5052094;28;20025;-63
2022/08/14 00:08:19;;;;;;;7.43;4.25;;;24.00;73.40;;;;;;5052081;28;20033;-64
2022/08/14 00:10:45;;;;;;;7.25;4.20;;;24.00;73.50;;;;;;5050441;28;20029;-63
2022/08/14 00:13:12;;;;;;;5.20;3.97;;;24.00;73.60;;;;;;5051851;28;20496;-64
2022/08/14 00:15:41;;;;;;;5.23;4.03;;;24.00;73.70;;;;;;5051865;28;20025;-63
2022/08/14 00:18:10;;;;;;;5.57;4.10;;;23.90;73.70;;;;;;5051875;28;20515;-64
2022/08/14 00:20:39;;;;;;;5.18;3.28;;;23.90;73.80;;;;;;5051561;28;20139;-63
2022/08/14 00:23:07;;;;;;;5.55;4.25;;;23.90;73.80;;;;;;5051833;28;20036;-63
2022/08/14 00:25:33;;;;;;;6.25;4.05;;;23.90;73.80;;;;;;5051864;28;20029;-64
2022/08/14 00:27:59;;;;;;;7.00;4.18;;;23.90;74.00;;;;;;5051637;28;20039;-63
2022/08/14 00:30:25;;;;;;;6.78;4.20;;;23.90;74.00;;;;;;5051555;28;20057;-63
2022/08/14 00:32:51;;;;;;;6.20;4.30;;;23.80;73.90;;;;;;5051388;28;20069;-63
2022/08/14 00:35:17;;;;;;;6.07;4.20;;;23.80;74.00;;;;;;5051507;28;20025;-63
2022/08/14 00:37:45;;;;;;;5.78;3.85;;;23.80;74.20;;;;;;5051484;28;20025;-64
2022/08/14 00:40:14;;;;;;;5.15;4.03;;;23.80;74.20;;;;;;5051290;28;20037;-63
2022/08/14 00:42:40;;;;;;;5.25;4.00;;;23.80;74.20;;;;;;5051886;28;20425;-64
2022/08/14 00:45:08;;;;;;;9.18;3.90;;;23.80;74.30;;;;;;5066784;28;20036;-63
2022/08/14 00:47:34;;;;;;;5.38;4.13;;;23.80;74.40;;;;;;5051351;28;20033;-64
2022/08/14 00:50:03;;;;;;;7.88;4.30;;;23.80;74.70;;;;;;5051114;28;20048;-64
2022/08/14 00:52:30;;;;;;;5.88;4.43;;;23.80;74.80;;;;;;5070998;22;20507;-69
2022/08/14 00:54:57;;;;;;;6.17;4.20;;;23.70;74.80;;;;;;5069928;28;20149;-69
2022/08/14 00:57:26;;;;;;;5.80;4.35;;;23.70;75.00;;;;;;5070997;28;20020;-69
2022/08/14 00:59:52;;;;;;;;;;;23.70;75.00;;;;;;5071430;28;20025;-69
2022/08/14 01:02:23;;;;;;;5.53;4.38;;;23.60;75.30;;;;;;5071158;28;20268;-69
2022/08/14 01:04:52;;;;;;;6.68;4.70;;;23.70;75.50;;;;;;5071420;28;20111;-68
2022/08/14 01:07:20;;;;;;;5.55;4.63;;;23.60;75.50;;;;;;5070884;28;20029;-69
2022/08/14 01:09:48;;;;;;;5.07;3.97;;;23.60;75.60;;;;;;5070334;28;20024;-69
2022/08/14 01:12:16;;;;;;;8.18;4.93;;;23.50;75.80;;;;;;5069560;28;20116;-69
2022/08/14 01:14:43;;;;;;;6.80;4.80;;;23.40;76.10;;;;;;5070958;28;20029;-69
2022/08/14 01:17:09;;;;;;;7.03;4.57;;;23.40;76.50;;;;;;5070637;28;20036;-69
2022/08/14 01:22:20;;;;;;;4.32;3.92;;;23.30;77.10;;;;;;5070873;28;20056;-69
2022/08/14 01:24:47;;;;;;;8.68;4.20;;;23.30;77.50;;;;;;5070846;28;20055;-68
2022/08/14 01:27:18;;;;;;;5.93;4.30;;;23.20;77.80;;;;;;5070729;28;20032;-69
2022/08/14 01:29:46;;;;;;;7.38;4.50;;;23.20;78.00;;;;;;5070484;28;20138;-69
2022/08/14 01:32:12;;;;;;;7.97;4.00;;;23.10;78.20;;;;;;5070572;28;20033;-69
2022/08/14 01:34:38;;;;;;;4.82;4.07;;;23.10;78.20;;;;;;5070736;28;20031;-69
2022/08/14 01:37:05;;;;;;;9.40;4.57;;;23.10;78.30;;;;;;5070525;28;20499;-69
2022/08/14 01:39:31;;;;;;;5.82;3.88;;;23.00;78.40;;;;;;5070479;28;20032;-68
2022/08/14 01:41:59;;;;;;;6.28;4.30;;;23.00;78.60;;;;;;5070639;28;20032;-69
2022/08/14 01:44:31;;;;;;;6.85;4.25;;;23.00;78.60;;;;;;5070656;28;20086;-69
2022/08/14 01:46:58;;;;;;;5.25;4.53;;;23.00;78.80;;;;;;5070471;28;20024;-68
2022/08/14 01:49:25;;;;;;;9.63;4.40;;;22.90;78.90;;;;;;5070470;28;20025;-69
2022/08/14 01:51:55;;;;;;;5.28;4.20;;;22.90;79.10;;;;;;5070304;28;20412;-68
2022/08/14 01:54:23;;;;;;;6.13;4.60;;;22.90;79.20;;;;;;5070452;28;20029;-68
2022/08/14 01:56:57;;;;;;;6.18;4.63;;;22.90;79.20;;;;;;5070520;28;20052;-69
2022/08/14 01:59:31;;;;;;;7.68;4.80;;;22.90;79.10;;;;;;5069111;28;20075;-69
2022/08/14 02:02:01;;;;;;;6.20;4.47;;;23.00;79.10;;;;;;5070497;28;20111;-69
2022/08/14 02:04:33;;;;;;;6.78;4.85;;;22.90;79.00;;;;;;5070475;28;20032;-69
2022/08/14 02:07:01;;;;;;;6.18;4.60;;;23.00;78.90;;;;;;5070198;28;20029;-69
2022/08/14 02:09:32;;;;;;;5.18;4.53;;;23.00;78.80;;;;;;5070171;28;20504;-69
2022/08/14 02:11:58;;;;;;;6.15;4.65;;;23.00;78.80;;;;;;5068978;28;20025;-68
2022/08/14 02:14:24;;;;;;;5.97;4.80;;;23.00;79.00;;;;;;5069145;28;20037;-69
2022/08/14 02:16:51;;;;;;;8.13;4.97;;;23.00;78.90;;;;;;5070267;28;20024;-69
2022/08/14 02:19:24;;;;;;;5.37;4.83;;;23.10;79.00;;;;;;5070120;28;20499;-69
2022/08/14 02:21:53;;;;;;;6.63;4.95;;;23.00;79.00;;;;;;5071644;28;20054;-69
2022/08/14 02:24:22;;;;;;;7.63;5.10;;;23.00;79.00;;;;;;5073883;28;20113;-69
2022/08/14 02:26:48;;;;;;;;;;;23.00;79.10;;;;;;5074260;28;20029;-69
2022/08/14 02:29:24;;;;;;;6.93;5.10;;;23.00;79.20;;;;;;5073743;28;19909;-69
2022/08/14 02:31:56;;;;;;;7.00;4.90;;;23.00;79.40;;;;;;5073649;28;20103;-69
2022/08/14 02:34:31;;;;;;;6.20;4.53;;;23.00;79.30;;;;;;5072534;28;20082;-69
2022/08/14 02:37:03;;;;;;;6.35;4.75;;;23.00;79.30;;;;;;5073619;28;20052;-69
2022/08/14 02:39:30;;;;;;;6.63;5.20;;;23.10;79.30;;;;;;5073381;28;20078;-69
2022/08/14 02:41:59;;;;;;;8.68;4.80;;;23.00;79.30;;;;;;5073492;28;20489;-69
2022/08/14 02:44:25;;;;;;;6.43;5.03;;;23.00;79.30;;;;;;5073502;28;20489;-69
2022/08/14 02:46:53;;;;;;;6.47;5.30;;;23.00;79.30;;;;;;5073395;28;20078;-69
2022/08/14 02:49:26;;;;;;;6.85;5.00;;;23.00;79.30;;;;;;5073316;28;20120;-69
2022/08/14 02:51:54;;;;;;;7.30;5.03;;;23.00;79.40;;;;;;5073106;28;20063;-68
2022/08/14 02:54:23;;;;;;;7.07;5.10;;;23.00;79.50;;;;;;5073286;28;20407;-68
2022/08/14 02:56:59;;;;;;;7.38;5.25;;;22.90;79.50;;;;;;5073249;28;20123;-69
2022/08/14 02:59:28;;;;;;;6.10;5.07;;;22.90;79.80;;;;;;5072925;28;20048;-69
2022/08/14 03:01:56;;;;;;;6.07;4.93;;;22.90;79.90;;;;;;5073308;28;20052;-68
2022/08/14 03:04:22;;;;;;;7.60;5.22;;;22.90;80.00;;;;;;5073298;28;20028;-69
2022/08/14 03:06:49;;;;;;;7.03;5.43;;;22.90;80.10;;;;;;5073159;28;20032;-68
2022/08/14 03:09:16;;;;;;;6.85;5.35;;;22.90;80.20;;;;;;5073024;28;20420;-68
2022/08/14 03:11:43;;;;;;;6.20;5.00;;;22.90;80.40;;;;;;5073033;28;20037;-69
2022/08/14 03:14:10;;;;;;;6.28;5.03;;;22.80;80.50;;;;;;5073041;28;20074;-69
2022/08/14 03:16:39;;;;;;;6.47;5.10;;;22.70;80.70;;;;;;5073265;28;20124;-69
2022/08/14 03:19:07;;;;;;;7.47;5.78;;;22.70;80.90;;;;;;5073741;28;20056;-70
2022/08/14 03:21:35;;;;;;;7.68;4.93;;;22.60;81.10;;;;;;5073810;28;20432;-69
2022/08/14 03:26:28;;;;;;;5.88;5.05;;;22.50;82.20;;;;;;5072743;28;20039;-68
2022/08/14 03:28:54;;;;;;;7.15;5.00;;;22.50;81.90;;;;;;5072654;28;20029;-67
2022/08/14 03:31:22;;;;;;;10.13;5.93;;;22.40;82.20;;;;;;5072644;28;20025;-68
2022/08/14 03:33:50;;;;;;;6.50;5.27;;;22.40;82.50;;;;;;5070891;28;20041;-67
2022/08/14 03:36:19;;;;;;;6.93;4.97;;;22.30;82.70;;;;;;5072382;28;20458;-68
2022/08/14 03:38:49;;;;;;;6.57;5.35;;;22.20;83.10;;;;;;5072227;28;20117;-68
2022/08/14 03:41:20;;;;;;;8.35;5.30;;;22.20;83.50;;;;;;5071215;28;20084;-68
2022/08/14 03:43:47;;;;;;;6.40;5.53;;;22.10;83.70;;;;;;5071236;28;20032;-67
2022/08/14 03:46:14;;;;;;;7.18;5.63;;;22.10;83.80;;;;;;5072220;28;20032;-68
2022/08/14 03:48:41;;;;;;;7.47;5.13;;;22.10;84.10;;;;;;5071088;28;20024;-68
2022/08/14 03:51:09;;;;;;;6.65;5.88;;;22.10;84.10;;;;;;5072238;28;20439;-68
2022/08/14 03:53:42;;;;;;;8.82;5.38;;;22.00;84.20;;;;;;5071963;28;20121;-68
2022/08/14 03:56:14;;;;;;;8.85;5.88;;;22.00;84.40;;;;;;5071998;28;20020;-67
2022/08/14 03:58:44;;;;;;;7.53;5.55;;;22.00;84.50;;;;;;5072010;28;20035;-68
2022/08/14 04:01:18;;;;;;;6.82;5.38;;;21.90;84.50;;;;;;5071880;28;20385;-68
2022/08/14 04:03:45;;;;;;;8.00;5.45;;;21.90;84.60;;;;;;5071888;28;20028;-68
2022/08/14 04:06:11;;;;;;;9.18;5.75;;;21.90;84.60;;;;;;5071756;28;20304;-68
2022/08/14 04:08:39;;;;;;;7.22;5.80;;;21.90;84.70;;;;;;5070531;28;20043;-67
2022/08/14 04:11:06;;;;;;;8.82;6.10;;;21.90;84.80;;;;;;5071874;28;20039;-67
2022/08/14 04:13:35;;;;;;;6.90;5.57;;;21.90;85.00;;;;;;5070519;28;20029;-69
2022/08/14 04:16:07;;;;;;;7.72;5.82;;;21.90;85.00;;;;;;5071567;28;20029;-68
2022/08/14 04:18:38;;;;;;;7.78;6.13;;;21.90;85.10;;;;;;5071429;28;20112;-68
2022/08/14 04:21:05;;;;;;;7.93;5.80;;;22.00;85.10;;;;;;5071784;28;20372;-68
2022/08/14 04:23:32;;;;;;;6.85;5.60;;;21.90;85.00;;;;;;5071633;28;20405;-68
2022/08/14 04:25:59;;;;;;;6.47;5.70;;;21.90;85.10;;;;;;5071495;28;20396;-68
2022/08/14 04:28:25;;;;;;;7.18;6.13;;;21.90;85.20;;;;;;5071432;28;20089;-68
2022/08/14 04:30:51;;;;;;;7.18;5.80;;;21.90;85.30;;;;;;5069894;28;20029;-68
2022/08/14 04:33:17;;;;;;;7.50;6.13;;;21.90;85.40;;;;;;5071351;28;20028;-68
2022/08/14 04:35:43;;;;;;;6.95;6.05;;;21.80;85.50;;;;;;5071360;28;20471;-68
2022/08/14 04:43:40;;;;;;;8.52;6.35;;;21.80;86.10;;;;;;5070793;28;20039;-68
2022/08/14 04:46:10;;;;;;;9.73;6.25;;;21.70;86.30;;;;;;5071013;28;20029;-68
2022/08/14 04:48:37;;;;;;;7.90;5.88;;;21.70;86.40;;;;;;5071131;28;20111;-68
2022/08/14 04:51:05;;;;;;;7.22;6.20;;;21.70;86.40;;;;;;5069837;28;20071;-68
2022/08/14 04:53:32;;;;;;;8.45;6.82;;;21.70;86.70;;;;;;5071122;28;20032;-68
2022/08/14 04:55:58;;;;;;;7.50;6.55;;;21.70;86.80;;;;;;5069678;28;20052;-68
2022/08/14 04:58:27;;;;;;;8.63;6.10;;;21.70;87.00;;;;;;5071015;28;20398;-68
2022/08/14 05:00:55;;;;;;;6.78;6.07;;;21.70;86.90;;;;;;5069873;28;20389;-68
2022/08/14 05:03:22;;;;;;;8.48;6.35;;;21.70;87.00;;;;;;5071115;28;20044;-68
2022/08/14 05:05:52;;;;;;;7.72;5.93;;;21.70;87.10;;;;;;5070939;28;20056;-68
2022/08/14 05:08:18;;;;;;;8.30;6.40;;;21.70;87.20;;;;;;5069765;28;20507;-68
2022/08/14 05:10:49;;;;;;;8.45;6.93;;;21.70;87.40;;;;;;5070736;28;20389;-68
2022/08/14 05:13:15;;;;;;;7.35;6.38;;;21.80;87.40;;;;;;5071110;28;20025;-68
2022/08/14 05:15:43;;;;;;;8.25;6.70;;;21.70;87.40;;;;;;5070721;28;20035;-68
2022/08/14 05:18:15;;;;;;;9.13;6.73;;;21.80;87.80;;;;;;5070885;28;20024;-68
2022/08/14 05:20:49;;;;;;;7.90;6.90;;;21.80;88.00;;;;;;5069330;28;20326;-68
2022/08/14 05:23:20;;;;;;;8.45;6.93;;;21.80;88.10;;;;;;5069597;28;20058;-68
2022/08/14 05:25:48;;;;;;;8.73;6.45;;;21.80;88.20;;;;;;5070725;28;20032;-68
2022/08/14 05:28:19;;;;;;;10.10;6.57;;;21.80;88.10;;;;;;5070762;28;20035;-68
2022/08/14 05:30:48;;;;;;;8.43;6.97;;;21.90;88.30;;;;;;5070584;28;20031;-68
2022/08/14 05:33:17;;;;;;;7.90;6.60;;;21.90;88.60;;;;;;5070711;28;20060;-68
2022/08/14 05:35:47;;;;;;;10.07;7.22;;;21.90;88.60;;;;;;5070820;28;20037;-68
2022/08/14 05:38:15;;;;;;;9.50;7.00;;;22.00;88.50;;;;;;5070788;28;20435;-68
2022/08/14 05:40:42;;;;;;;10.82;7.68;;;22.00;88.70;;;;;;5070645;28;20078;-68
2022/08/14 05:43:09;;;;;;;10.20;6.90;;;22.00;88.50;;;;;;5070666;28;20059;-68
2022/08/14 05:45:35;;;;;;;8.35;7.45;;;22.10;88.40;;;;;;5070587;28;20493;-68
2022/08/14 05:48:03;;;;;;;8.98;7.25;;;22.10;88.40;;;;;;5070329;28;20032;-68
2022/08/14 05:50:29;;;;;;;11.63;7.95;;;22.20;88.70;;;;;;5070195;28;20028;-68
2022/08/14 05:52:56;;;;;;;8.73;7.13;;;22.20;88.80;;;;;;5070647;28;20039;-68
2022/08/14 05:55:22;;;;;;;8.23;6.93;;;22.20;88.40;;;;;;5069975;28;20039;-68
2022/08/14 05:57:56;;;;;;;10.43;6.97;;;22.30;88.30;;;;;;5074463;28;20029;-68
2022/08/14 06:00:25;;;;;;;7.93;7.13;;;22.30;88.30;;;;;;5072686;28;20029;-68
2022/08/14 06:02:51;;;;;;;8.55;7.10;;;22.40;88.60;;;;;;5074521;28;20477;-68
2022/08/14 06:05:17;;;;;;;7.95;7.15;;;22.40;89.40;;;;;;5074102;28;20032;-68
2022/08/14 06:07:43;;;;;;;7.75;6.40;;;22.50;88.60;;;;;;5074133;28;20033;-68
2022/08/14 06:10:09;;;;;;;8.98;6.65;;;22.60;88.40;;;;;;5073894;28;20067;-68
2022/08/14 06:12:36;;;;;;;9.63;7.32;;;22.60;88.20;;;;;;5073938;28;20082;-68
2022/08/14 06:15:04;;;;;;;8.63;6.95;;;22.70;88.10;;;;;;5074022;28;20107;-68
2022/08/14 06:17:31;;;;;;;9.15;6.85;;;22.70;87.90;;;;;;5074114;28;20024;-69
2022/08/14 06:19:57;;;;;;;7.72;6.68;;;22.90;87.90;;;;;;5073854;28;20025;-69
2022/08/14 06:22:22;;;;;;;7.60;6.63;;;22.90;87.70;;;;;;5074175;28;20048;-69
2022/08/14 06:24:48;;;;;;;8.38;6.90;;;23.00;87.60;;;;;;5073937;28;20477;-69
2022/08/14 06:27:14;;;;;;;7.05;6.35;;;23.00;87.30;;;;;;5073705;28;20036;-69
2022/08/14 06:29:41;;;;;;;7.70;6.90;;;23.00;87.10;;;;;;5073376;28;20052;-69
2022/08/14 06:32:07;;;;;;;7.13;6.35;;;23.10;86.80;;;;;;5073756;28;20024;-68
2022/08/14 06:34:32;;;;;;;7.15;6.40;;;23.10;86.80;;;;;;5073745;28;20508;-68
2022/08/14 06:36:58;;;;;;;9.18;7.22;;;23.20;86.80;;;;;;5073572;28;20028;-70
2022/08/14 06:39:24;;;;;;;10.73;6.90;;;23.20;86.60;;;;;;5073459;28;20028;-69
2022/08/14 06:41:50;;;;;;;7.72;6.93;;;23.20;86.50;;;;;;5072180;28;20032;-69
2022/08/14 06:44:16;;;;;;;9.15;7.38;;;23.30;86.50;;;;;;5074021;28;20385;-69
2022/08/14 06:46:42;;;;;;;7.97;6.95;;;23.30;86.40;;;;;;5073585;28;20062;-69
2022/08/14 06:49:08;;;;;;;8.02;7.00;;;23.40;86.20;;;;;;5073248;28;20055;-69
2022/08/14 06:51:34;;;;;;;8.10;6.68;;;23.40;86.10;;;;;;5073600;28;20047;-69
2022/08/14 06:54:00;;;;;;;8.23;6.63;;;23.40;85.90;;;;;;5101526;22;20411;-64
2022/08/14 06:56:26;;;;;;;8.02;7.15;;;23.50;85.90;;;;;;5093764;28;20044;-64
2022/08/14 06:58:52;;;;;;;8.70;7.43;;;23.50;85.70;;;;;;5093576;28;20028;-64
2022/08/14 07:06:48;;;;;;;8.50;7.13;;;23.60;85.40;;;;;;5092875;28;20032;-63
2022/08/14 07:09:14;;;;;;;8.52;7.00;;;23.60;85.50;;;;;;5093645;28;20158;-63
2022/08/14 07:11:41;;;;;;;7.88;7.07;;;23.60;85.40;;;;;;5093525;28;20503;-63
2022/08/14 07:14:07;;;;;;;7.78;6.70;;;23.70;85.40;;;;;;5093371;28;20042;-62
2022/08/14 07:16:33;;;;;;;7.53;6.68;;;23.70;85.20;;;;;;5093374;28;20031;-63
2022/08/14 07:18:59;;;;;;;7.68;6.72;;;23.80;85.30;;;;;;5093185;28;20073;-63
2022/08/14 07:21:25;;;;;;;7.35;6.65;;;23.80;85.40;;;;;;5093217;28;20547;-64
2022/08/14 07:23:51;;;;;;;8.48;6.57;;;23.80;85.40;;;;;;5093167;28;20114;-63
2022/08/14 07:26:17;;;;;;;7.28;6.30;;;23.80;85.60;;;;;;5093044;28;20506;-63
2022/08/14 07:28:43;;;;;;;7.93;6.65;;;23.90;85.70;;;;;;5092937;28;20044;-63
2022/08/14 07:31:11;;;;;;;6.97;6.28;;;23.90;85.60;;;;;;5092979;28;20032;-64
2022/08/14 07:33:45;;;;;;;7.28;6.47;;;24.00;85.60;;;;;;5093164;28;20115;-64
2022/08/14 07:36:13;;;;;;;8.85;7.07;;;24.00;85.60;;;;;;5092899;28;20070;-63
2022/08/14 07:38:42;;;;;;;8.35;7.45;;;24.00;85.30;;;;;;5093067;28;20031;-62
2022/08/14 07:41:10;;;;;;;7.60;6.80;;;24.10;85.60;;;;;;5092826;28;20020;-63
2022/08/14 07:43:36;;;;;;;8.60;6.80;;;24.10;85.40;;;;;;5092669;28;20032;-64
2022/08/14 07:46:04;;;;;;;7.65;6.68;;;24.10;85.30;;;;;;5092978;28;20090;-62
2022/08/14 07:48:30;;;;;;;8.15;7.25;;;24.20;85.40;;;;;;5092779;28;20065;-66
2022/08/14 07:50:56;;;;;;;7.38;6.60;;;24.20;85.40;;;;;;5092629;28;20031;-63
2022/08/14 07:53:22;;;;;;;8.32;6.80;;;24.20;85.30;;;;;;5092480;28;20056;-64
2022/08/14 07:55:49;;;;;;;8.35;7.45;;;24.20;85.30;;;;;;5092665;28;20080;-64
2022/08/14 07:58:19;;;;;;;9.18;8.15;;;24.20;85.10;;;;;;5092599;28;20039;-63
2022/08/14 08:00:45;;;;;;;10.20;8.23;;;24.30;85.20;;;;;;5092302;28;20028;-63
2022/08/14 08:03:12;;;;;;;8.70;7.80;;;24.30;85.20;;;;;;5092516;28;20469;-63
2022/08/14 08:05:40;;;;;;;7.90;7.10;;;24.30;84.90;;;;;;5092215;28;20404;-64
2022/08/14 08:08:07;;;;;;;9.05;7.30;;;24.40;84.90;;;;;;5092445;28;20035;-63
2022/08/14 08:10:37;;;;;;;7.93;7.13;;;24.40;84.90;;;;;;5092056;28;20377;-64
2022/08/14 08:13:04;;;;;;;7.93;7.07;;;24.40;84.90;;;;;;5092258;28;20028;-64
2022/08/14 08:15:33;;;;;;;7.18;6.47;;;24.40;85.00;;;;;;5092250;28;20020;-63
2022/08/14 08:18:03;;;;;;;7.30;6.50;;;24.40;84.90;;;;;;5091896;28;20024;-63
2022/08/14 08:20:31;;;;;;;7.18;6.40;;;24.50;84.80;;;;;;5091227;28;20028;-64
2022/08/14 08:22:58;;;;;;;7.60;6.40;;;24.50;84.70;;;;;;5092085;28;20028;-63
2022/08/14 08:25:26;;;;;;;7.40;6.60;;;24.50;84.90;;;;;;5091890;28;20476;-64
2022/08/14 08:28:02;;;;;;;7.87;6.43;;;24.60;84.70;;;;;;5091733;28;20127;-63
2022/08/14 08:30:30;;;;;;;9.85;7.18;;;24.60;84.50;;;;;;5091707;28;20495;-63
2022/08/14 08:32:57;;;;;;;;;;;24.60;84.20;;;;;;5090950;28;20119;-63
2022/08/14 08:35:25;;;;;;;8.13;7.07;;;24.60;84.10;;;;;;5092321;28;19908;-64
2022/08/14 08:37:53;;;;;;;8.35;7.35;;;24.60;84.30;;;;;;5091947;28;20030;-63
2022/08/14 08:40:26;;;;;;;7.97;7.18;;;24.70;84.20;;;;;;5091599;28;20028;-63
2022/08/14 08:42:52;;;;;;;7.82;7.03;;;24.70;84.30;;;;;;5091766;28;20035;-65
2022/08/14 08:45:20;;;;;;;7.78;6.97;;;24.70;84.10;;;;;;5091635;28;20028;-64
2022/08/14 08:47:47;;;;;;;7.97;7.00;;;24.70;84.10;;;;;;5091429;28;20031;-63
2022/08/14 08:50:18;;;;;;;9.63;7.70;;;24.80;83.70;;;;;;5091512;28;20093;-63
2022/08/14 08:52:49;;;;;;;8.63;7.72;;;24.80;83.10;;;;;;5091699;28;20487;-63
2022/08/14 08:55:22;;;;;;;7.50;6.78;;;24.90;83.40;;;;;;5091674;28;20146;-63
2022/08/14 08:58:03;;;;;;;8.13;6.78;;;24.90;83.40;;;;;;5091611;28;20031;-63
2022/08/14 09:00:33;;;;;;;8.25;7.43;;;24.80;83.60;;;;;;5091564;28;20425;-64
2022/08/14 09:03:02;;;;;;;10.63;7.63;;;24.90;83.60;;;;;;5091472;28;20031;-63
2022/08/14 09:05:29;;;;;;;8.50;7.63;;;24.90;83.40;;;;;;5090114;28;20028;-64
2022/08/14 09:08:17;;;;;;;8.27;7.35;;;25.00;83.40;;;;;;5091126;28;20028;-64
2022/08/14 09:10:44;;;;;;;7.85;7.05;;;25.00;83.40;;;;;;5091163;28;20472;-63
2022/08/14 09:13:11;;;;;;;9.05;7.20;;;25.00;83.50;;;;;;5091393;28;20031;-63
2022/08/14 09:15:39;;;;;;;8.10;7.28;;;25.10;82.90;;;;;;5091342;28;20605;-65
2022/08/14 09:18:07;;;;;;;7.72;6.93;;;25.10;82.80;;;;;;5091631;28;20050;-63
2022/08/14 09:20:33;;;;;;;8.10;7.30;;;25.10;82.70;;;;;;5091049;28;20035;-64
2022/08/14 09:23:00;;;;;;;8.52;7.13;;;25.20;81.70;;;;;;5091222;28;20278;-64
2022/08/14 09:25:26;;;;;;;7.57;6.88;;;25.20;81.80;;;;;;5091582;28;20026;-64
2022/08/14 09:27:52;;;;;;;7.40;6.70;;;25.20;82.10;;;;;;5091226;28;20060;-63
2022/08/14 09:30:18;;;;;;;6.97;6.28;;;25.20;82.00;;;;;;5091809;28;20048;-64
2022/08/14 09:33:04;;;;;;;7.30;6.35;;;25.20;81.40;;;;;;5095366;28;20032;-64
2022/08/14 09:35:55;;;;;;;7.78;6.90;;;25.20;80.50;;;;;;5064007;28;20032;-63
2022/08/14 09:38:33;;;;;;;7.35;6.50;;;25.30;80.70;;;;;;5095451;28;20028;-64
2022/08/14 09:41:23;;;;;;;7.75;6.53;;;25.30;80.70;;;;;;5095329;28;20035;-64
2022/08/14 09:44:15;;;;;;;7.50;6.13;;;25.30;80.70;;;;;;5095334;28;20024;-65
2022/08/14 09:46:58;;;;;;;7.00;6.30;;;25.40;79.10;;;;;;5076956;28;20028;-65
2022/08/14 09:49:32;;;;;;;6.93;6.22;;;25.40;79.10;;;;;;5094814;28;20032;-64
2022/08/14 09:52:16;;;;;;;7.00;6.15;;;25.40;79.30;;;;;;5095011;28;20408;-65
2022/08/14 09:54:47;;;;;;;7.40;6.57;;;25.40;79.50;;;;;;5095074;28;20028;-65
2022/08/14 09:57:27;;;;;;;6.95;6.25;;;25.50;78.50;;;;;;5094870;28;20044;-65
2022/08/14 09:59:53;;;;;;;8.02;6.68;;;25.50;78.00;;;;;;5094523;28;20123;-65
2022/08/14 10:02:29;;;;;;;7.55;5.93;;;25.50;77.60;;;;;;5094744;28;20384;-64
2022/08/14 10:05:09;;;;;;;6.55;5.85;;;25.50;77.60;;;;;;5094956;28;20032;-64
2022/08/14 10:07:56;;;;;;;6.10;5.50;;;25.50;77.80;;;;;;5094797;28;20107;-64
2022/08/14 10:10:31;;;;;;;7.65;5.85;;;25.60;75.50;;;;;;5094400;28;20024;-63
2022/08/14 10:12:57;;;;;;;9.77;6.30;;;25.60;75.50;;;;;;5094624;28;20119;-63
2022/08/14 10:15:26;;;;;;;6.72;6.05;;;25.80;75.20;;;;;;5094650;28;20058;-64
2022/08/14 10:18:13;;;;;;;9.95;6.13;;;25.90;75.30;;;;;;5094603;28;20537;-65
2022/08/14 10:21:00;;;;;;;7.03;6.15;;;25.90;75.10;;;;;;5094370;28;20435;-64
2022/08/14 10:23:38;;;;;;;7.05;5.85;;;26.00;74.80;;;;;;5094216;28;20051;-64
2022/08/14 10:26:06;;;;;;;6.32;5.50;;;26.00;74.30;;;;;;5094197;28;20028;-66
2022/08/14 10:28:41;;;;;;;;;;;26.10;74.30;;;;;;5094588;28;20028;-64
2022/08/14 10:31:22;;;;;;;6.18;5.30;;;26.10;74.60;;;;;;5094257;28;19916;-64
2022/08/14 10:34:09;;;;;;;6.70;5.80;;;26.20;73.80;;;;;;5094296;28;20115;-64
2022/08/14 10:36:43;;;;;;;7.00;6.22;;;26.20;73.90;;;;;;5094247;28;20028;-65
2022/08/14 10:39:18;;;;;;;8.35;7.05;;;26.20;74.40;;;;;;5094241;28;20495;-63
2022/08/14 10:41:45;;;;;;;7.68;6.72;;;26.20;74.10;;;;;;5093192;28;20042;-64
2022/08/14 10:44:13;;;;;;;7.00;6.30;;;26.20;74.10;;;;;;5093952;28;20034;-65
2022/08/14 10:46:43;;;;;;;7.63;6.32;;;26.30;74.40;;;;;;5094006;28;20046;-64
2022/08/14 10:49:29;;;;;;;7.57;6.03;;;26.30;74.30;;;;;;5094007;28;20020;-65
2022/08/14 10:52:05;;;;;;;6.88;5.72;;;26.40;73.90;;;;;;5094026;28;20073;-64
2022/08/14 10:54:43;;;;;;;6.55;5.95;;;26.50;74.30;;;;;;5093898;28;20456;-64
2022/08/14 10:57:10;;;;;;;7.68;5.28;;;26.40;73.40;;;;;;5094256;28;20515;-65
2022/08/14 10:59:49;;;;;;;6.60;6.00;;;26.50;72.80;;;;;;5094024;28;20028;-64
2022/08/14 11:02:28;;;;;;;7.72;6.78;;;26.60;72.70;;;;;;5093844;28;20050;-65
2022/08/14 11:05:12;;;;;;;8.07;6.55;;;26.60;73.40;;;;;;5093708;28;20035;-64
2022/08/14 11:07:40;;;;;;;7.80;6.25;;;26.60;73.50;;;;;;5093794;28;20020;-65
2022/08/14 11:10:11;;;;;;;7.45;6.40;;;26.60;73.20;;;;;;5092423;28;20024;-64
2022/08/14 11:12:49;;;;;;;7.65;6.82;;;26.60;73.30;;;;;;5093399;28;20105;-65
2022/08/14 11:15:20;;;;;;;7.90;6.13;;;26.60;73.50;;;;;;5092304;28;20404;-64
2022/08/14 11:17:48;;;;;;;6.47;5.70;;;26.60;73.40;;;;;;5093461;28;20121;-65
2022/08/14 11:20:17;;;;;;;6.75;6.05;;;26.60;73.10;;;;;;5093201;28;20038;-64
2022/08/14 11:22:44;;;;;;;7.88;6.38;;;26.60;73.30;;;;;;5093541;28;20028;-64
2022/08/14 11:25:13;;;;;;;7.47;5.82;;;26.50;73.90;;;;;;5093303;28;20032;-65
2022/08/14 11:27:42;;;;;;;6.82;6.13;;;26.40;74.20;;;;;;5093290;28;20028;-65
2022/08/14 11:30:15;;;;;;;6.65;5.93;;;26.50;73.40;;;;;;5093051;28;20032;-63
2022/08/14 11:32:44;;;;;;;8.95;7.03;;;26.50;73.30;;;;;;5093220;28;20036;-65
2022/08/14 11:35:14;;;;;;;6.40;5.47;;;26.50;73.50;;;;;;5093054;28;20115;-64
2022/08/14 11:38:00;;;;;;;7.05;5.97;;;26.70;72.20;;;;;;5093029;28;20050;-63
2022/08/14 11:40:35;;;;;;;6.75;5.55;;;26.80;72.10;;;;;;5092920;28;20427;-64
2022/08/14 11:43:03;;;;;;;8.18;6.68;;;26.90;72.40;;;;;;5093074;28;20073;-64
2022/08/14 11:45:33;;;;;;;6.95;6.25;;;26.80;72.60;;;;;;5092976;28;20055;-65
2022/08/14 11:48:17;;;;;;;6.53;5.93;;;26.80;72.30;;;;;;5092759;28;20081;-65
2022/08/14 11:50:44;;;;;;;6.10;5.50;;;26.90;72.40;;;;;;5092615;28;20047;-64
2022/08/14 11:53:20;;;;;;;6.93;5.78;;;26.80;72.70;;;;;;5092633;28;20024;-64
2022/08/14 11:55:53;;;;;;;6.60;5.43;;;26.80;72.70;;;;;;5092744;28;20052;-64
2022/08/14 11:58:26;;;;;;;6.25;5.40;;;26.80;73.40;;;;;;5092885;28;20020;-63
2022/08/14 12:01:02;;;;;;;7.70;6.10;;;26.70;73.20;;;;;;5092491;28;20032;-63
2022/08/14 12:03:44;;;;;;;9.65;7.28;;;26.70;73.10;;;;;;5092753;28;20362;-64
2022/08/14 12:06:14;;;;;;;6.28;5.68;;;26.90;72.50;;;;;;5092959;28;20028;-64
2022/08/14 12:08:41;;;;;;;8.27;6.03;;;27.00;71.80;;;;;;5092639;28;20499;-65
2022/08/14 12:11:12;;;;;;;6.53;5.90;;;27.10;72.00;;;;;;5092840;28;20035;-64
2022/08/14 12:13:39;;;;;;;8.95;7.78;;;27.20;72.80;;;;;;5092731;28;20126;-65
2022/08/14 12:16:08;;;;;;;6.55;5.85;;;27.30;72.00;;;;;;5092454;28;20024;-64
2022/08/14 12:18:36;;;;;;;7.43;6.38;;;27.40;70.80;;;;;;5092260;28;20480;-64
2022/08/14 12:21:16;;;;;;;10.23;7.35;;;27.50;70.60;;;;;;5092425;28;20493;-65
2022/08/14 12:23:43;;;;;;;7.38;6.68;;;27.50;70.10;;;;;;5092477;28;20039;-64
2022/08/14 12:26:16;;;;;;;7.68;6.55;;;27.50;69.90;;;;;;5092447;28;20030;-65
2022/08/14 12:28:43;;;;;;;8.57;5.93;;;27.60;70.00;;;;;;5092337;28;20032;-65
2022/08/14 12:31:22;;;;;;;6.85;5.80;;;27.70;70.10;;;;;;5092415;28;20067;-65
2022/08/14 12:34:05;;;;;;;8.00;6.15;;;27.60;70.60;;;;;;5092678;28;20032;-65
2022/08/14 12:36:32;;;;;;;6.38;5.65;;;27.70;69.30;;;;;;5092391;28;20047;-65
2022/08/14 12:38:59;;;;;;;6.20;5.43;;;27.70;68.30;;;;;;5092230;28;20039;-65
2022/08/14 12:41:28;;;;;;;6.35;5.75;;;27.70;68.30;;;;;;5092264;28;20047;-65
2022/08/14 12:44:00;;;;;;;6.53;5.72;;;27.60;68.60;;;;;;5092316;28;20028;-65
2022/08/14 12:46:35;;;;;;;6.05;5.30;;;27.50;70.40;;;;;;5092124;28;20361;-64
2022/08/14 12:49:08;;;;;;;5.82;5.13;;;27.40;70.50;;;;;;5090797;28;20024;-64
2022/08/14 12:51:34;;;;;;;6.10;5.50;;;27.40;71.10;;;;;;5092077;28;20110;-65
2022/08/14 12:54:15;;;;;;;7.07;5.55;;;27.30;71.70;;;;;;5091709;28;20023;-64
2022/08/14 12:56:41;;;;;;;7.10;6.03;;;27.30;71.20;;;;;;5091858;28;20301;-65
2022/08/14 12:59:07;;;;;;;6.90;5.70;;;27.30;71.20;;;;;;5091715;28;20020;-64
2022/08/14 13:01:35;;;;;;;6.05;5.10;;;27.30;71.70;;;;;;5091660;28;20567;-64
2022/08/14 13:04:11;;;;;;;5.95;5.35;;;27.40;73.30;;;;;;5091607;28;20036;-64
2022/08/14 13:06:40;;;;;;;5.72;5.10;;;27.30;71.80;;;;;;5091057;28;20120;-65
2022/08/14 13:09:07;;;;;;;6.40;5.60;;;27.40;71.40;;;;;;5091532;28;20028;-64
2022/08/14 13:11:53;;;;;;;6.43;5.13;;;27.40;72.80;;;;;;5091875;28;20032;-65
2022/08/14 13:14:24;;;;;;;7.35;6.03;;;27.40;71.40;;;;;;5091634;28;20111;-66
2022/08/14 13:16:56;;;;;;;5.93;5.32;;;27.50;70.50;;;;;;5091530;28;20028;-65